sensor_id;sensor_type;location;lat;lon;timestamp;temperature;humidity
26909;DHT22;14477;51.038;4.588;2024-01-15T00:01:56;4.60;99.90
26909;DHT22;14477;51.038;4.588;2024-01-15T00:04:21;4.60;99.90
26909;DHT22;14477;51.038;4.588;2024-01-15T00:06:47;4.60;99.90
26909;DHT22;14477;51.038;4.588;2024-01-15T00:09:13;4.60;99.90
26909;DHT22;14477;51.038;4.588;2024-01-15T00:11:38;4.60;99.90
26909;DHT22;14477;51.038;4.588;2024-01-15T00:14:04;4.60;99.90
26909;DHT22;14477;51.038;4.588;2024-01-15T00:16:30;4.70;99.90
26909;DHT22;14477;51.038;4.588;2024-01-15T00:18:55;4.70;99.90
26909;DHT22;14477;51.038;4.588;2024-01-15T00:21:21;4.70;99.90
26909;DHT22;14477;51.038;4.588;2024-01-15T00:23:47;4.70;99.90
26909;DHT22;14477;51.038;4.588;2024-01-15T00:26:13;4.80;99.90
26909;DHT22;14477;51.038;4.588;2024-01-15T00:28:38;4.80;99.90
26909;DHT22;14477;51.038;4.588;2024-01-15T00:31:05;4.80;99.90
26909;DHT22;14477;51.038;4.588;2024-01-15T00:33:31;4.90;99.90
26909;DHT22;14477;51.038;4.588;2024-01-15T00:35:56;4.90;99.90
26909;DHT22;14477;51.038;4.588;2024-01-15T00:38:22;4.90;99.90
26909;DHT22;14477;51.038;4.588;2024-01-15T00:40:48;4.80;99.90
26909;DHT22;14477;51.038;4.588;2024-01-15T00:43:14;4.80;99.90
26909;DHT22;14477;51.038;4.588;2024-01-15T00:45:40;4.80;99.90
26909;DHT22;14477;51.038;4.588;2024-01-15T00:48:06;4.80;99.90
26909;DHT22;14477;51.038;4.588;2024-01-15T00:50:32;4.80;99.90
26909;DHT22;14477;51.038;4.588;2024-01-15T00:52:57;4.80;99.90
26909;DHT22;14477;51.038;4.588;2024-01-15T00:55:23;4.70;99.90
26909;DHT22;14477;51.038;4.588;2024-01-15T00:57:49;4.70;99.90
26909;DHT22;14477;51.038;4.588;2024-01-15T01:00:15;4.70;99.90
26909;DHT22;14477;51.038;4.588;2024-01-15T01:02:40;4.60;99.90
26909;DHT22;14477;51.038;4.588;2024-01-15T01:05:06;4.60;99.90
26909;DHT22;14477;51.038;4.588;2024-01-15T01:07:32;4.60;99.90
26909;DHT22;14477;51.038;4.588;2024-01-15T01:09:58;4.60;99.90
26909;DHT22;14477;51.038;4.588;2024-01-15T01:12:23;4.50;99.90
26909;DHT22;14477;51.038;4.588;2024-01-15T01:14:49;4.50;99.90
26909;DHT22;14477;51.038;4.588;2024-01-15T01:17:15;4.50;99.90
26909;DHT22;14477;51.038;4.588;2024-01-15T01:19:41;4.40;99.90
26909;DHT22;14477;51.038;4.588;2024-01-15T01:22:06;4.40;99.90
26909;DHT22;14477;51.038;4.588;2024-01-15T01:24:32;4.40;99.90
26909;DHT22;14477;51.038;4.588;2024-01-15T01:26:58;4.30;99.90
26909;DHT22;14477;51.038;4.588;2024-01-15T01:29:24;4.30;99.90
26909;DHT22;14477;51.038;4.588;2024-01-15T01:31:51;4.30;99.90
26909;DHT22;14477;51.038;4.588;2024-01-15T01:34:17;4.30;99.90
26909;DHT22;14477;51.038;4.588;2024-01-15T01:36:43;4.30;99.90
26909;DHT22;14477;51.038;4.588;2024-01-15T01:39:09;4.20;99.90
26909;DHT22;14477;51.038;4.588;2024-01-15T01:41:35;4.20;99.90
26909;DHT22;14477;51.038;4.588;2024-01-15T01:44:01;4.20;99.90
26909;DHT22;14477;51.038;4.588;2024-01-15T01:46:27;4.20;99.90
26909;DHT22;14477;51.038;4.588;2024-01-15T01:48:56;4.20;99.90
26909;DHT22;14477;51.038;4.588;2024-01-15T01:51:23;4.20;99.90
26909;DHT22;14477;51.038;4.588;2024-01-15T01:53:50;6.10;99.90
26909;DHT22;14477;51.038;4.588;2024-01-15T01:56:17;4.20;99.90
26909;DHT22;14477;51.038;4.588;2024-01-15T01:58:46;4.20;99.90
26909;DHT22;14477;51.038;4.588;2024-01-15T02:01:13;4.30;99.90
26909;DHT22;14477;51.038;4.588;2024-01-15T02:03:40;4.20;99.90
26909;DHT22;14477;51.038;4.588;2024-01-15T02:06:06;4.20;99.90
26909;DHT22;14477;51.038;4.588;2024-01-15T02:08:32;4.20;99.90
26909;DHT22;14477;51.038;4.588;2024-01-15T02:10:57;4.20;99.90
26909;DHT22;14477;51.038;4.588;2024-01-15T02:13:23;4.20;99.90
26909;DHT22;14477;51.038;4.588;2024-01-15T02:15:49;4.20;99.90
26909;DHT22;14477;51.038;4.588;2024-01-15T02:18:15;4.20;99.90
26909;DHT22;14477;51.038;4.588;2024-01-15T02:20:40;4.20;99.90
26909;DHT22;14477;51.038;4.588;2024-01-15T02:23:15;4.10;99.90
26909;DHT22;14477;51.038;4.588;2024-01-15T02:25:43;4.10;99.90
26909;DHT22;14477;51.038;4.588;2024-01-15T02:28:11;4.20;99.90
26909;DHT22;14477;51.038;4.588;2024-01-15T02:30:38;4.20;99.90
26909;DHT22;14477;51.038;4.588;2024-01-15T02:33:05;4.20;99.90
26909;DHT22;14477;51.038;4.588;2024-01-15T02:35:31;4.20;99.90
26909;DHT22;14477;51.038;4.588;2024-01-15T02:37:57;4.20;99.90
26909;DHT22;14477;51.038;4.588;2024-01-15T02:40:23;4.20;99.90
26909;DHT22;14477;51.038;4.588;2024-01-15T02:42:48;4.20;99.90
26909;DHT22;14477;51.038;4.588;2024-01-15T02:45:14;4.30;99.90
26909;DHT22;14477;51.038;4.588;2024-01-15T02:47:40;4.30;99.90
26909;DHT22;14477;51.038;4.588;2024-01-15T02:50:06;4.30;99.90
26909;DHT22;14477;51.038;4.588;2024-01-15T02:52:32;4.30;99.90
26909;DHT22;14477;51.038;4.588;2024-01-15T02:54:57;4.30;99.90
26909;DHT22;14477;51.038;4.588;2024-01-15T02:57:23;4.30;99.90
26909;DHT22;14477;51.038;4.588;2024-01-15T02:59:49;4.30;99.90
26909;DHT22;14477;51.038;4.588;2024-01-15T03:02:15;4.40;99.90
26909;DHT22;14477;51.038;4.588;2024-01-15T03:04:44;4.40;99.90
26909;DHT22;14477;51.038;4.588;2024-01-15T03:07:10;4.40;99.90
26909;DHT22;14477;51.038;4.588;2024-01-15T03:09:35;4.40;99.90
26909;DHT22;14477;51.038;4.588;2024-01-15T03:12:01;4.40;99.90
26909;DHT22;14477;51.038;4.588;2024-01-15T03:14:27;4.40;99.90
26909;DHT22;14477;51.038;4.588;2024-01-15T03:16:53;4.40;99.90
26909;DHT22;14477;51.038;4.588;2024-01-15T03:19:18;4.40;99.90
26909;DHT22;14477;51.038;4.588;2024-01-15T03:21:44;4.50;99.90
26909;DHT22;14477;51.038;4.588;2024-01-15T03:24:10;4.50;99.90
26909;DHT22;14477;51.038;4.588;2024-01-15T03:26:36;4.50;99.90
26909;DHT22;14477;51.038;4.588;2024-01-15T03:29:02;4.50;99.90
26909;DHT22;14477;51.038;4.588;2024-01-15T03:31:27;4.50;99.90
26909;DHT22;14477;51.038;4.588;2024-01-15T03:33:53;4.50;99.90
26909;DHT22;14477;51.038;4.588;2024-01-15T03:36:19;4.50;99.90
26909;DHT22;14477;51.038;4.588;2024-01-15T03:38:45;4.50;99.90
26909;DHT22;14477;51.038;4.588;2024-01-15T03:41:11;4.50;99.90
26909;DHT22;14477;51.038;4.588;2024-01-15T03:43:36;4.50;99.90
26909;DHT22;14477;51.038;4.588;2024-01-15T03:46:02;4.50;99.90
26909;DHT22;14477;51.038;4.588;2024-01-15T03:48:28;4.60;99.90
26909;DHT22;14477;51.038;4.588;2024-01-15T03:50:54;4.60;99.90
26909;DHT22;14477;51.038;4.588;2024-01-15T03:53:19;4.60;99.90
26909;DHT22;14477;51.038;4.588;2024-01-15T03:55:45;4.50;99.90
26909;DHT22;14477;51.038;4.588;2024-01-15T03:58:11;4.60;99.90
26909;DHT22;14477;51.038;4.588;2024-01-15T04:00:37;4.60;99.90
26909;DHT22;14477;51.038;4.588;2024-01-15T04:03:02;4.50;99.90
26909;DHT22;14477;51.038;4.588;2024-01-15T04:05:28;4.50;99.90
26909;DHT22;14477;51.038;4.588;2024-01-15T04:07:54;4.50;99.90
26909;DHT22;14477;51.038;4.588;2024-01-15T04:10:20;4.50;99.90
26909;DHT22;14477;51.038;4.588;2024-01-15T04:12:45;4.50;99.90
26909;DHT22;14477;51.038;4.588;2024-01-15T04:15:15;4.50;99.90
26909;DHT22;14477;51.038;4.588;2024-01-15T04:17:41;4.50;99.90
26909;DHT22;14477;51.038;4.588;2024-01-15T04:20:07;4.50;99.90
26909;DHT22;14477;51.038;4.588;2024-01-15T04:22:34;4.50;99.90
26909;DHT22;14477;51.038;4.588;2024-01-15T04:25:00;4.40;99.90
26909;DHT22;14477;51.038;4.588;2024-01-15T04:27:26;4.50;99.90
26909;DHT22;14477;51.038;4.588;2024-01-15T04:29:52;4.40;99.90
26909;DHT22;14477;51.038;4.588;2024-01-15T04:32:18;4.40;99.90
26909;DHT22;14477;51.038;4.588;2024-01-15T04:34:44;4.40;99.90
26909;DHT22;14477;51.038;4.588;2024-01-15T04:37:10;4.30;99.90
26909;DHT22;14477;51.038;4.588;2024-01-15T04:39:35;4.30;99.90
26909;DHT22;14477;51.038;4.588;2024-01-15T04:42:01;4.30;99.90
26909;DHT22;14477;51.038;4.588;2024-01-15T04:44:27;4.20;99.90
26909;DHT22;14477;51.038;4.588;2024-01-15T04:46:53;4.20;99.90
26909;DHT22;14477;51.038;4.588;2024-01-15T04:49:19;4.20;99.90
26909;DHT22;14477;51.038;4.588;2024-01-15T04:51:45;4.10;99.90
26909;DHT22;14477;51.038;4.588;2024-01-15T04:54:10;4.10;99.90
26909;DHT22;14477;51.038;4.588;2024-01-15T04:56:37;4.10;99.90
26909;DHT22;14477;51.038;4.588;2024-01-15T04:59:03;4.10;99.90
26909;DHT22;14477;51.038;4.588;2024-01-15T05:01:32;4.00;99.90
26909;DHT22;14477;51.038;4.588;2024-01-15T05:03:58;4.00;99.90
26909;DHT22;14477;51.038;4.588;2024-01-15T05:06:24;3.00;99.90
26909;DHT22;14477;51.038;4.588;2024-01-15T05:08:50;3.90;99.90
26909;DHT22;14477;51.038;4.588;2024-01-15T05:11:16;4.00;99.90
26909;DHT22;14477;51.038;4.588;2024-01-15T05:13:41;3.90;99.90
26909;DHT22;14477;51.038;4.588;2024-01-15T05:16:07;3.90;99.90
26909;DHT22;14477;51.038;4.588;2024-01-15T05:18:33;3.90;99.90
26909;DHT22;14477;51.038;4.588;2024-01-15T05:20:59;3.90;99.90
26909;DHT22;14477;51.038;4.588;2024-01-15T05:23:25;3.80;99.90
26909;DHT22;14477;51.038;4.588;2024-01-15T05:25:50;3.90;99.90
26909;DHT22;14477;51.038;4.588;2024-01-15T05:28:16;3.90;99.90
26909;DHT22;14477;51.038;4.588;2024-01-15T05:30:42;3.80;99.90
26909;DHT22;14477;51.038;4.588;2024-01-15T05:33:08;3.90;99.90
26909;DHT22;14477;51.038;4.588;2024-01-15T05:35:34;3.80;99.90
26909;DHT22;14477;51.038;4.588;2024-01-15T05:38:00;3.90;99.90
26909;DHT22;14477;51.038;4.588;2024-01-15T05:40:26;3.90;99.90
26909;DHT22;14477;51.038;4.588;2024-01-15T05:42:51;3.90;99.90
26909;DHT22;14477;51.038;4.588;2024-01-15T05:45:17;3.80;99.90
26909;DHT22;14477;51.038;4.588;2024-01-15T05:47:43;3.90;99.90
26909;DHT22;14477;51.038;4.588;2024-01-15T05:50:10;3.80;99.90
26909;DHT22;14477;51.038;4.588;2024-01-15T05:52:36;3.80;99.90
26909;DHT22;14477;51.038;4.588;2024-01-15T05:55:02;3.80;99.90
26909;DHT22;14477;51.038;4.588;2024-01-15T05:57:27;3.80;99.90
26909;DHT22;14477;51.038;4.588;2024-01-15T05:59:53;3.80;99.90
26909;DHT22;14477;51.038;4.588;2024-01-15T06:02:19;3.80;99.90
26909;DHT22;14477;51.038;4.588;2024-01-15T06:04:45;3.80;99.90
26909;DHT22;14477;51.038;4.588;2024-01-15T06:07:11;3.80;99.90
26909;DHT22;14477;51.038;4.588;2024-01-15T06:09:37;3.80;99.90
26909;DHT22;14477;51.038;4.588;2024-01-15T06:12:04;3.80;99.90
26909;DHT22;14477;51.038;4.588;2024-01-15T06:14:30;3.80;99.90
26909;DHT22;14477;51.038;4.588;2024-01-15T06:16:56;3.80;99.90
26909;DHT22;14477;51.038;4.588;2024-01-15T06:19:21;3.80;99.90
26909;DHT22;14477;51.038;4.588;2024-01-15T06:21:47;3.80;99.90
26909;DHT22;14477;51.038;4.588;2024-01-15T06:24:13;3.80;99.90
26909;DHT22;14477;51.038;4.588;2024-01-15T06:26:39;3.80;99.90
26909;DHT22;14477;51.038;4.588;2024-01-15T06:29:04;3.80;99.90
26909;DHT22;14477;51.038;4.588;2024-01-15T06:31:30;3.80;99.90
26909;DHT22;14477;51.038;4.588;2024-01-15T06:33:56;3.80;99.90
26909;DHT22;14477;51.038;4.588;2024-01-15T06:36:22;3.90;99.90
26909;DHT22;14477;51.038;4.588;2024-01-15T06:38:47;3.90;99.90
26909;DHT22;14477;51.038;4.588;2024-01-15T06:41:13;3.90;99.90
26909;DHT22;14477;51.038;4.588;2024-01-15T06:43:39;3.90;99.90
26909;DHT22;14477;51.038;4.588;2024-01-15T06:46:05;3.90;99.90
26909;DHT22;14477;51.038;4.588;2024-01-15T06:48:30;3.90;99.90
26909;DHT22;14477;51.038;4.588;2024-01-15T06:50:56;3.90;99.90
26909;DHT22;14477;51.038;4.588;2024-01-15T06:53:22;3.90;99.90
26909;DHT22;14477;51.038;4.588;2024-01-15T06:55:48;3.90;99.90
26909;DHT22;14477;51.038;4.588;2024-01-15T06:58:14;3.90;99.90
26909;DHT22;14477;51.038;4.588;2024-01-15T07:00:40;3.90;99.90
26909;DHT22;14477;51.038;4.588;2024-01-15T07:03:06;3.90;99.90
26909;DHT22;14477;51.038;4.588;2024-01-15T07:05:32;3.90;99.90
26909;DHT22;14477;51.038;4.588;2024-01-15T07:07:58;3.80;99.90
26909;DHT22;14477;51.038;4.588;2024-01-15T07:10:24;3.80;99.90
26909;DHT22;14477;51.038;4.588;2024-01-15T07:12:50;3.80;99.90
26909;DHT22;14477;51.038;4.588;2024-01-15T07:15:15;3.80;99.90
26909;DHT22;14477;51.038;4.588;2024-01-15T07:17:41;3.80;99.90
26909;DHT22;14477;51.038;4.588;2024-01-15T07:20:08;3.80;99.90
26909;DHT22;14477;51.038;4.588;2024-01-15T07:22:38;3.80;99.90
26909;DHT22;14477;51.038;4.588;2024-01-15T07:25:04;3.80;99.90
26909;DHT22;14477;51.038;4.588;2024-01-15T07:27:31;3.70;99.90
26909;DHT22;14477;51.038;4.588;2024-01-15T07:29:57;3.70;99.90
26909;DHT22;14477;51.038;4.588;2024-01-15T07:32:23;3.70;99.90
26909;DHT22;14477;51.038;4.588;2024-01-15T07:34:49;3.70;99.90
26909;DHT22;14477;51.038;4.588;2024-01-15T07:37:15;3.70;99.90
26909;DHT22;14477;51.038;4.588;2024-01-15T07:39:41;3.70;99.90
26909;DHT22;14477;51.038;4.588;2024-01-15T07:42:07;3.70;99.90
26909;DHT22;14477;51.038;4.588;2024-01-15T07:44:33;3.70;99.90
26909;DHT22;14477;51.038;4.588;2024-01-15T07:46:59;3.80;99.90
26909;DHT22;14477;51.038;4.588;2024-01-15T07:49:25;3.80;99.90
26909;DHT22;14477;51.038;4.588;2024-01-15T07:51:50;3.80;99.90
26909;DHT22;14477;51.038;4.588;2024-01-15T07:54:16;3.80;99.90
26909;DHT22;14477;51.038;4.588;2024-01-15T07:57:01;3.90;99.90
26909;DHT22;14477;51.038;4.588;2024-01-15T07:59:29;3.90;99.90
26909;DHT22;14477;51.038;4.588;2024-01-15T08:01:55;3.90;99.90
26909;DHT22;14477;51.038;4.588;2024-01-15T08:04:20;3.90;99.90
26909;DHT22;14477;51.038;4.588;2024-01-15T08:06:47;4.00;99.90
26909;DHT22;14477;51.038;4.588;2024-01-15T08:09:13;4.00;99.90
26909;DHT22;14477;51.038;4.588;2024-01-15T08:11:40;4.10;99.90
26909;DHT22;14477;51.038;4.588;2024-01-15T08:14:08;4.10;99.90
26909;DHT22;14477;51.038;4.588;2024-01-15T08:16:33;4.00;99.90
26909;DHT22;14477;51.038;4.588;2024-01-15T08:18:59;4.10;99.90
26909;DHT22;14477;51.038;4.588;2024-01-15T08:21:25;4.20;99.90
26909;DHT22;14477;51.038;4.588;2024-01-15T08:23:52;4.20;99.90
26909;DHT22;14477;51.038;4.588;2024-01-15T08:26:18;4.20;99.90
26909;DHT22;14477;51.038;4.588;2024-01-15T08:28:43;4.20;99.90
26909;DHT22;14477;51.038;4.588;2024-01-15T08:31:09;4.20;99.90
26909;DHT22;14477;51.038;4.588;2024-01-15T08:33:35;4.30;99.90
26909;DHT22;14477;51.038;4.588;2024-01-15T08:36:01;4.30;99.90
26909;DHT22;14477;51.038;4.588;2024-01-15T08:38:27;4.30;99.90
26909;DHT22;14477;51.038;4.588;2024-01-15T08:40:53;4.40;99.90
26909;DHT22;14477;51.038;4.588;2024-01-15T08:43:22;4.30;99.90
26909;DHT22;14477;51.038;4.588;2024-01-15T08:45:47;4.30;99.90
26909;DHT22;14477;51.038;4.588;2024-01-15T08:48:13;4.40;99.90
26909;DHT22;14477;51.038;4.588;2024-01-15T08:50:39;4.40;99.90
26909;DHT22;14477;51.038;4.588;2024-01-15T08:53:05;4.40;99.90
26909;DHT22;14477;51.038;4.588;2024-01-15T08:55:31;4.40;99.90
26909;DHT22;14477;51.038;4.588;2024-01-15T08:57:56;4.40;99.90
26909;DHT22;14477;51.038;4.588;2024-01-15T09:00:22;4.50;99.90
26909;DHT22;14477;51.038;4.588;2024-01-15T09:02:48;4.50;99.90
26909;DHT22;14477;51.038;4.588;2024-01-15T09:05:13;4.50;99.90
26909;DHT22;14477;51.038;4.588;2024-01-15T09:07:39;4.60;99.90
26909;DHT22;14477;51.038;4.588;2024-01-15T09:10:05;4.70;99.90
26909;DHT22;14477;51.038;4.588;2024-01-15T09:12:31;4.70;99.90
26909;DHT22;14477;51.038;4.588;2024-01-15T09:14:56;4.70;99.90
26909;DHT22;14477;51.038;4.588;2024-01-15T09:17:22;4.80;99.90
26909;DHT22;14477;51.038;4.588;2024-01-15T09:19:51;4.80;99.90
26909;DHT22;14477;51.038;4.588;2024-01-15T09:22:16;4.90;99.90
26909;DHT22;14477;51.038;4.588;2024-01-15T09:24:44;4.90;99.90
26909;DHT22;14477;51.038;4.588;2024-01-15T09:27:11;4.90;99.90
26909;DHT22;14477;51.038;4.588;2024-01-15T09:29:36;5.00;99.90
26909;DHT22;14477;51.038;4.588;2024-01-15T09:32:05;5.00;99.90
26909;DHT22;14477;51.038;4.588;2024-01-15T09:34:33;5.10;99.90
26909;DHT22;14477;51.038;4.588;2024-01-15T09:36:58;5.20;99.90
26909;DHT22;14477;51.038;4.588;2024-01-15T09:39:26;5.30;99.90
26909;DHT22;14477;51.038;4.588;2024-01-15T09:41:52;5.40;99.90
26909;DHT22;14477;51.038;4.588;2024-01-15T09:44:19;5.70;99.90
26909;DHT22;14477;51.038;4.588;2024-01-15T09:46:46;6.00;99.90
26909;DHT22;14477;51.038;4.588;2024-01-15T09:49:12;6.30;99.90
26909;DHT22;14477;51.038;4.588;2024-01-15T09:51:39;6.60;99.90
26909;DHT22;14477;51.038;4.588;2024-01-15T09:54:05;7.00;99.90
26909;DHT22;14477;51.038;4.588;2024-01-15T09:56:31;7.40;99.90
26909;DHT22;14477;51.038;4.588;2024-01-15T09:59:00;7.80;99.90
26909;DHT22;14477;51.038;4.588;2024-01-15T10:01:26;8.30;99.90
26909;DHT22;14477;51.038;4.588;2024-01-15T10:03:51;8.60;99.90
26909;DHT22;14477;51.038;4.588;2024-01-15T10:06:18;9.00;99.90
26909;DHT22;14477;51.038;4.588;2024-01-15T10:08:51;9.40;99.90
26909;DHT22;14477;51.038;4.588;2024-01-15T10:11:17;9.70;99.90
26909;DHT22;14477;51.038;4.588;2024-01-15T10:13:46;10.00;99.90
26909;DHT22;14477;51.038;4.588;2024-01-15T10:16:12;10.40;99.90
26909;DHT22;14477;51.038;4.588;2024-01-15T10:18:38;10.70;99.90
26909;DHT22;14477;51.038;4.588;2024-01-15T10:21:08;11.00;99.90
26909;DHT22;14477;51.038;4.588;2024-01-15T10:23:33;11.20;99.90
26909;DHT22;14477;51.038;4.588;2024-01-15T10:26:00;11.50;99.90
26909;DHT22;14477;51.038;4.588;2024-01-15T10:28:30;11.70;99.90
26909;DHT22;14477;51.038;4.588;2024-01-15T10:30:58;12.00;99.90
26909;DHT22;14477;51.038;4.588;2024-01-15T10:33:27;12.30;99.90
26909;DHT22;14477;51.038;4.588;2024-01-15T10:36:00;12.60;99.90
26909;DHT22;14477;51.038;4.588;2024-01-15T10:38:26;12.80;99.90
26909;DHT22;14477;51.038;4.588;2024-01-15T10:40:53;13.00;99.90
26909;DHT22;14477;51.038;4.588;2024-01-15T10:43:19;13.10;99.90
26909;DHT22;14477;51.038;4.588;2024-01-15T10:45:46;13.30;99.90
26909;DHT22;14477;51.038;4.588;2024-01-15T10:48:13;13.40;99.90
26909;DHT22;14477;51.038;4.588;2024-01-15T10:50:39;13.60;99.90
26909;DHT22;14477;51.038;4.588;2024-01-15T10:53:05;13.80;99.90
26909;DHT22;14477;51.038;4.588;2024-01-15T10:55:35;14.00;99.90
26909;DHT22;14477;51.038;4.588;2024-01-15T10:58:03;14.20;99.90
26909;DHT22;14477;51.038;4.588;2024-01-15T11:00:29;14.10;99.90
26909;DHT22;14477;51.038;4.588;2024-01-15T11:02:55;14.00;99.90
26909;DHT22;14477;51.038;4.588;2024-01-15T11:05:22;13.70;99.90
26909;DHT22;14477;51.038;4.588;2024-01-15T11:07:49;13.50;99.90
26909;DHT22;14477;51.038;4.588;2024-01-15T11:13:39;12.80;99.90
26909;DHT22;14477;51.038;4.588;2024-01-15T11:16:10;12.30;99.90
26909;DHT22;14477;51.038;4.588;2024-01-15T11:18:39;11.90;99.90
26909;DHT22;14477;51.038;4.588;2024-01-15T11:23:46;11.20;99.90
26909;DHT22;14477;51.038;4.588;2024-01-15T11:28:58;10.70;99.90
26909;DHT22;14477;51.038;4.588;2024-01-15T11:31:27;10.50;99.90
26909;DHT22;14477;51.038;4.588;2024-01-15T11:33:53;10.40;99.90
26909;DHT22;14477;51.038;4.588;2024-01-15T11:42:01;10.40;99.90
26909;DHT22;14477;51.038;4.588;2024-01-15T11:44:29;10.50;99.90
26909;DHT22;14477;51.038;4.588;2024-01-15T11:47:02;10.70;99.90
26909;DHT22;14477;51.038;4.588;2024-01-15T11:50:00;10.90;99.90
26909;DHT22;14477;51.038;4.588;2024-01-15T11:52:34;11.40;99.90
26909;DHT22;14477;51.038;4.588;2024-01-15T11:55:35;11.90;99.90
26909;DHT22;14477;51.038;4.588;2024-01-15T11:58:02;12.30;99.90
26909;DHT22;14477;51.038;4.588;2024-01-15T12:00:31;12.50;99.90
26909;DHT22;14477;51.038;4.588;2024-01-15T12:02:58;12.50;99.90
26909;DHT22;14477;51.038;4.588;2024-01-15T12:05:24;12.40;99.90
26909;DHT22;14477;51.038;4.588;2024-01-15T12:07:50;12.30;99.90
26909;DHT22;14477;51.038;4.588;2024-01-15T12:10:18;13.10;99.90
26909;DHT22;14477;51.038;4.588;2024-01-15T12:13:00;11.80;99.90
26909;DHT22;14477;51.038;4.588;2024-01-15T12:15:29;11.50;99.90
26909;DHT22;14477;51.038;4.588;2024-01-15T12:17:56;11.20;99.90
26909;DHT22;14477;51.038;4.588;2024-01-15T12:20:25;11.00;99.90
26909;DHT22;14477;51.038;4.588;2024-01-15T12:22:51;10.90;99.90
26909;DHT22;14477;51.038;4.588;2024-01-15T12:25:17;10.70;99.90
26909;DHT22;14477;51.038;4.588;2024-01-15T12:27:43;10.70;99.90
26909;DHT22;14477;51.038;4.588;2024-01-15T12:30:13;10.70;99.90
26909;DHT22;14477;51.038;4.588;2024-01-15T12:32:40;10.50;99.90
26909;DHT22;14477;51.038;4.588;2024-01-15T12:35:07;10.50;99.90
26909;DHT22;14477;51.038;4.588;2024-01-15T12:37:35;10.40;99.90
26909;DHT22;14477;51.038;4.588;2024-01-15T12:40:03;10.50;99.90
26909;DHT22;14477;51.038;4.588;2024-01-15T12:42:41;10.30;99.90
26909;DHT22;14477;51.038;4.588;2024-01-15T12:45:08;10.10;99.90
26909;DHT22;14477;51.038;4.588;2024-01-15T12:47:34;9.80;99.90
26909;DHT22;14477;51.038;4.588;2024-01-15T12:50:01;9.60;99.90
26909;DHT22;14477;51.038;4.588;2024-01-15T12:52:28;9.30;99.90
26909;DHT22;14477;51.038;4.588;2024-01-15T12:54:54;9.00;99.90
26909;DHT22;14477;51.038;4.588;2024-01-15T12:57:20;8.70;99.90
26909;DHT22;14477;51.038;4.588;2024-01-15T12:59:46;8.50;99.90
26909;DHT22;14477;51.038;4.588;2024-01-15T13:02:13;8.30;99.90
26909;DHT22;14477;51.038;4.588;2024-01-15T13:04:39;8.10;99.90
26909;DHT22;14477;51.038;4.588;2024-01-15T13:07:06;8.00;99.90
26909;DHT22;14477;51.038;4.588;2024-01-15T13:09:32;7.80;99.90
26909;DHT22;14477;51.038;4.588;2024-01-15T13:11:58;7.70;99.90
26909;DHT22;14477;51.038;4.588;2024-01-15T13:14:24;7.60;99.90
26909;DHT22;14477;51.038;4.588;2024-01-15T13:16:50;7.50;99.90
26909;DHT22;14477;51.038;4.588;2024-01-15T13:19:16;7.50;99.90
26909;DHT22;14477;51.038;4.588;2024-01-15T13:21:42;7.40;99.90
26909;DHT22;14477;51.038;4.588;2024-01-15T13:24:08;7.40;99.90
26909;DHT22;14477;51.038;4.588;2024-01-15T13:26:35;7.50;99.90
26909;DHT22;14477;51.038;4.588;2024-01-15T13:29:04;7.60;99.90
26909;DHT22;14477;51.038;4.588;2024-01-15T13:31:30;7.60;99.90
26909;DHT22;14477;51.038;4.588;2024-01-15T13:33:56;7.60;99.90
26909;DHT22;14477;51.038;4.588;2024-01-15T13:36:22;7.50;99.90
26909;DHT22;14477;51.038;4.588;2024-01-15T13:38:49;7.50;99.90
26909;DHT22;14477;51.038;4.588;2024-01-15T13:41:16;7.40;99.90
26909;DHT22;14477;51.038;4.588;2024-01-15T13:43:48;7.30;99.90
26909;DHT22;14477;51.038;4.588;2024-01-15T13:46:14;7.20;99.90
26909;DHT22;14477;51.038;4.588;2024-01-15T13:48:40;7.20;99.90
26909;DHT22;14477;51.038;4.588;2024-01-15T13:51:06;7.10;99.90
26909;DHT22;14477;51.038;4.588;2024-01-15T13:53:31;7.00;99.90
26909;DHT22;14477;51.038;4.588;2024-01-15T13:55:57;7.00;99.90
26909;DHT22;14477;51.038;4.588;2024-01-15T13:58:23;7.00;99.90
26909;DHT22;14477;51.038;4.588;2024-01-15T14:00:51;6.90;99.90
26909;DHT22;14477;51.038;4.588;2024-01-15T14:03:17;6.90;99.90
26909;DHT22;14477;51.038;4.588;2024-01-15T14:05:44;6.80;99.90
26909;DHT22;14477;51.038;4.588;2024-01-15T14:08:10;6.80;99.90
26909;DHT22;14477;51.038;4.588;2024-01-15T14:10:36;6.80;99.90
26909;DHT22;14477;51.038;4.588;2024-01-15T14:13:03;6.80;99.90
26909;DHT22;14477;51.038;4.588;2024-01-15T14:15:29;6.80;99.90
26909;DHT22;14477;51.038;4.588;2024-01-15T14:17:54;6.70;99.90
26909;DHT22;14477;51.038;4.588;2024-01-15T14:20:20;6.70;99.90
26909;DHT22;14477;51.038;4.588;2024-01-15T14:22:47;6.60;99.90
26909;DHT22;14477;51.038;4.588;2024-01-15T14:25:13;6.60;99.90
26909;DHT22;14477;51.038;4.588;2024-01-15T14:27:39;6.60;99.90
26909;DHT22;14477;51.038;4.588;2024-01-15T14:30:05;6.50;99.90
26909;DHT22;14477;51.038;4.588;2024-01-15T14:32:32;6.50;99.90
26909;DHT22;14477;51.038;4.588;2024-01-15T14:34:58;6.50;99.90
26909;DHT22;14477;51.038;4.588;2024-01-15T14:37:24;6.50;99.90
26909;DHT22;14477;51.038;4.588;2024-01-15T14:39:49;6.60;99.90
26909;DHT22;14477;51.038;4.588;2024-01-15T14:42:15;6.50;99.90
26909;DHT22;14477;51.038;4.588;2024-01-15T14:44:41;6.60;99.90
26909;DHT22;14477;51.038;4.588;2024-01-15T14:47:07;6.60;99.90
26909;DHT22;14477;51.038;4.588;2024-01-15T14:49:33;6.60;99.90
26909;DHT22;14477;51.038;4.588;2024-01-15T14:51:59;6.60;99.90
26909;DHT22;14477;51.038;4.588;2024-01-15T14:54:25;6.70;99.90
26909;DHT22;14477;51.038;4.588;2024-01-15T14:56:51;6.70;99.90
26909;DHT22;14477;51.038;4.588;2024-01-15T14:59:17;6.70;99.90
26909;DHT22;14477;51.038;4.588;2024-01-15T15:01:43;6.80;99.90
26909;DHT22;14477;51.038;4.588;2024-01-15T15:04:09;6.70;99.90
26909;DHT22;14477;51.038;4.588;2024-01-15T15:06:36;6.80;99.90
26909;DHT22;14477;51.038;4.588;2024-01-15T15:09:03;6.80;99.90
26909;DHT22;14477;51.038;4.588;2024-01-15T15:11:34;6.70;99.90
26909;DHT22;14477;51.038;4.588;2024-01-15T15:14:01;6.70;99.90
26909;DHT22;14477;51.038;4.588;2024-01-15T15:16:27;6.60;99.90
26909;DHT22;14477;51.038;4.588;2024-01-15T15:18:53;6.60;99.90
26909;DHT22;14477;51.038;4.588;2024-01-15T15:21:20;6.50;99.90
26909;DHT22;14477;51.038;4.588;2024-01-15T15:23:46;6.40;99.90
26909;DHT22;14477;51.038;4.588;2024-01-15T15:26:13;6.40;99.90
26909;DHT22;14477;51.038;4.588;2024-01-15T15:28:39;6.40;99.90
26909;DHT22;14477;51.038;4.588;2024-01-15T15:31:06;6.40;99.90
26909;DHT22;14477;51.038;4.588;2024-01-15T15:33:36;6.30;99.90
26909;DHT22;14477;51.038;4.588;2024-01-15T15:36:02;6.30;99.90
26909;DHT22;14477;51.038;4.588;2024-01-15T15:38:31;6.30;99.90
26909;DHT22;14477;51.038;4.588;2024-01-15T15:40:57;6.30;99.90
26909;DHT22;14477;51.038;4.588;2024-01-15T15:43:25;6.30;99.90
26909;DHT22;14477;51.038;4.588;2024-01-15T15:45:51;6.20;99.90
26909;DHT22;14477;51.038;4.588;2024-01-15T15:48:16;6.20;99.90
26909;DHT22;14477;51.038;4.588;2024-01-15T15:50:42;6.20;99.90
26909;DHT22;14477;51.038;4.588;2024-01-15T15:53:08;6.20;99.90
26909;DHT22;14477;51.038;4.588;2024-01-15T15:55:33;6.20;99.90